LFRC 210400Z AUTO 03006KT 9999 SCT029 OVC036 04/M01 Q1038

ElémentsDécodage
LFRC Station météo située sur l'aérodrome de CHERBOURG Maupertus
210400Z émis le 21 du mois à 04h00 UTC
AUTO Bulletin édité par un automate
03006KT vent du 030°, 06 noeuds
9999 visibilité horizontale supérieure à 10 Km
SCT029 nuages épars (3/8 à 4/8) à 2900 pieds
OVC036 couverture nuageuse totale (8/8) à 3600 pieds
04/M01 température 04°C, point de rosée -01°C
 soit une humidité relative de 70%
Q1038 la pression au niveau de la mer (QNH) est de 1038 hPa